Dera Ismail Khan Weather



Dera Ismail Khan's Current Weather

Temprature 43.85o few clouds

few clouds

Rain: 0 %

Min Temprature43.85o
Max Temprature43.85o
Humidity24
Wind Speed4.68 m/h
Sun Rise05:40:03
Sun Set19:02:37
Current Time: 13-Aug-2020 19:26:01
Lat/Lon: 31.83, 70.9




Dera Ismail Khan's Geo Location



Dera Ismail Khan's Weather Forecast

Time Overall Temp Min Temp Max Temp Humidity Wind Speed Rain
13-Aug-2020 (Thu)
20:00:00 few clouds 44.030 43.190 44.030 24 4.71 m/h 0 %
23:00:00 scattered clouds 41.500 40.580 41.500 30 5.63 m/h 0 %
14-Aug-2020 (Fri)
02:00:00 scattered clouds 36.490 35.920 36.490 42 7.81 m/h 0 %
05:00:00 few clouds 33.110 33.020 33.110 56 7.11 m/h 0 %
08:00:00 clear sky 33.800 33.800 33.800 56 5.88 m/h 0 %
11:00:00 clear sky 38.520 38.520 38.520 41 3.52 m/h 0 %
14:00:00 scattered clouds 41.490 41.490 41.490 33 3.77 m/h 0 %
17:00:00 scattered clouds 42.690 42.690 42.690 29 2.53 m/h 0 %
20:00:00 scattered clouds 41.070 41.070 41.070 32 6.04 m/h 0 %
23:00:00 light rain 39.250 39.250 39.250 36 7.9 m/h 12 %
15-Aug-2020 (Sat)
02:00:00 broken clouds 37.620 37.620 37.620 41 6.59 m/h 0 %
05:00:00 broken clouds 36.570 36.570 36.570 43 3.98 m/h 0 %
08:00:00 clear sky 37.130 37.130 37.130 42 4.95 m/h 0 %
11:00:00 clear sky 40.850 40.850 40.850 32 3.85 m/h 0 %
14:00:00 clear sky 44.270 44.270 44.270 25 2.31 m/h 0 %
17:00:00 few clouds 45.330 45.330 45.330 21 3.6 m/h 0 %
20:00:00 few clouds 42.520 42.520 42.520 27 6.64 m/h 0 %
23:00:00 clear sky 39.410 39.410 39.410 36 8.26 m/h 0 %
16-Aug-2020 (Sun)
02:00:00 clear sky 37.910 37.910 37.910 39 7.65 m/h 0 %
05:00:00 clear sky 36.640 36.640 36.640 41 2.48 m/h 0 %
08:00:00 clear sky 37.940 37.940 37.940 38 5.17 m/h 0 %
11:00:00 clear sky 41.840 41.840 41.840 30 4.97 m/h 0 %
14:00:00 clear sky 44.600 44.600 44.600 25 3.86 m/h 0 %
17:00:00 few clouds 45.100 45.100 45.100 22 4.2 m/h 0 %
20:00:00 clear sky 42.540 42.540 42.540 27 6.11 m/h 0 %
23:00:00 clear sky 39.810 39.810 39.810 33 6.99 m/h 0 %
17-Aug-2020 (Mon)
02:00:00 clear sky 37.740 37.740 37.740 38 6.11 m/h 0 %
05:00:00 clear sky 36.380 36.380 36.380 42 3.11 m/h 0 %
08:00:00 clear sky 37.720 37.720 37.720 40 3.96 m/h 0 %
11:00:00 clear sky 41.590 41.590 41.590 31 3.75 m/h 0 %
14:00:00 clear sky 44.700 44.700 44.700 25 3.3 m/h 0 %
17:00:00 few clouds 45.100 45.100 45.100 22 4.24 m/h 0 %
20:00:00 few clouds 42.180 42.180 42.180 27 6.8 m/h 0 %
23:00:00 broken clouds 39.970 39.970 39.970 34 6.88 m/h 0 %
18-Aug-2020 (Tue)
02:00:00 broken clouds 38.010 38.010 38.010 36 5.39 m/h 0 %
05:00:00 light rain 35.230 35.230 35.230 44 3.23 m/h 16 %
08:00:00 broken clouds 36.560 36.560 36.560 41 3.19 m/h 0 %
11:00:00 scattered clouds 41.480 41.480 41.480 30 3.12 m/h 0 %
14:00:00 clear sky 45.280 45.280 45.280 23 3.69 m/h 0 %
17:00:00 scattered clouds 45.350 45.350 45.350 22 5.53 m/h 0 %


Dera Ismail Khan's Tourist Spots

Historical Places in Dera Ismail Khan

Famous Cities (60)